Time;durP1;ratioP1;P1;durP2;ratioP2;P2;SDS_P1;SDS_P2;PMS_P1;PMS_P2;Temp;Humidity;BMP_temperature;BMP_pressure;BME280_temperature;BME280_humidity;BME280_pressure;Samples;Min_cycle;Max_cycle;Signal;HPM_P1;HPM_P2
2022/12/23 00:00:10;;;;;;;30.23;15.57;;;;;;;3.94;81.06;97707.47;5090902;28;20039;-68
2022/12/23 00:02:35;;;;;;;29.48;16.13;;;;;;;3.94;80.60;97699.31;5091279;28;20115;-69
2022/12/23 00:05:01;;;;;;;28.05;15.05;;;;;;;3.92;80.80;97696.91;5090713;28;20098;-69
2022/12/23 00:07:26;;;;;;;32.90;16.92;;;;;;;3.92;81.34;97693.34;5091125;28;20500;-68
2022/12/23 00:09:52;;;;;;;33.17;17.13;;;;;;;3.93;80.35;97695.00;5090718;28;20391;-68
2022/12/23 00:15:04;;;;;;;37.38;20.58;;;;;;;3.88;81.07;97696.59;5089078;28;20101;-69
2022/12/23 00:17:30;;;;;;;42.63;25.75;;;;;;;3.86;80.60;97701.53;5088797;28;20016;-69
2022/12/23 00:19:55;;;;;;;40.33;21.30;;;;;;;3.83;80.65;97702.06;5090181;28;20031;-68
2022/12/23 00:23:03;;;;;;;40.55;20.90;;;;;;;3.82;81.43;97702.31;5090349;28;20443;-68
2022/12/23 00:25:06;;;;;;;39.72;21.10;;;;;;;3.78;80.75;97710.19;5090437;28;20035;-68
2022/12/23 00:27:31;;;;;;;41.33;21.35;;;;;;;3.79;81.13;97703.69;5090743;28;20383;-68
2022/12/23 00:29:57;;;;;;;42.25;21.80;;;;;;;3.76;81.18;97696.09;5072467;28;20020;-68
2022/12/23 00:32:22;;;;;;;41.90;22.77;;;;;;;3.76;81.17;97703.38;5090822;28;20491;-68
2022/12/23 00:34:47;;;;;;;41.67;23.30;;;;;;;3.77;81.47;97695.00;5090605;28;20028;-69
2022/12/23 00:37:13;;;;;;;43.15;23.33;;;;;;;3.76;80.65;97693.38;5089898;28;20035;-68
2022/12/23 00:45:24;;;;;;;42.30;22.65;;;;;;;3.76;81.54;97689.81;5027794;28;20038;-68
2022/12/23 00:50:37;;;;;;;63.05;28.75;;;;;;;3.70;80.97;97691.75;5090275;28;20105;-67
2022/12/23 00:53:03;;;;;;;50.00;25.05;;;;;;;3.68;80.71;97688.47;5089331;28;20031;-68
2022/12/23 00:55:29;;;;;;;46.05;23.52;;;;;;;3.64;81.26;97700.94;5090014;28;20040;-68
2022/12/23 00:57:54;;;;;;;39.55;22.55;;;;;;;3.56;81.60;97697.69;5089775;28;20038;-67
2022/12/23 01:05:35;;;;;;;42.92;21.95;;;;;;;3.52;81.59;97699.28;5089650;28;20024;-67
2022/12/23 01:05:49;;;;;;;40.55;23.27;;;;;;;3.42;80.97;97702.81;5088616;28;20034;-67
2022/12/23 01:08:15;;;;;;;41.97;21.63;;;;;;;3.38;81.50;97695.50;5089441;28;20020;-67
2022/12/23 01:10:40;;;;;;;38.83;22.80;;;;;;;3.33;81.58;97703.63;5089187;28;20035;-67
2022/12/23 01:13:06;;;;;;;39.63;21.15;;;;;;;3.32;81.74;97704.69;5089853;28;20435;-67
2022/12/23 01:15:32;;;;;;;36.85;20.95;;;;;;;3.27;81.01;97692.75;5089858;28;20098;-67
2022/12/23 01:17:57;;;;;;;36.63;18.92;;;;;;;3.25;81.55;97699.53;5089424;28;20027;-67
2022/12/23 01:20:23;;;;;;;34.70;19.48;;;;;;;3.24;82.15;97690.56;5089144;28;20399;-67
2022/12/23 01:22:49;;;;;;;34.22;17.40;;;;;;;3.23;81.99;97688.94;5089806;28;20040;-68
2022/12/23 01:25:15;;;;;;;33.92;17.48;;;;;;;3.20;81.29;97692.19;5090547;28;20032;-67
2022/12/23 01:27:40;;;;;;;34.20;17.42;;;;;;;3.20;81.04;97689.47;5090377;28;20116;-67
2022/12/23 01:30:06;;;;;;;29.98;16.30;;;;;;;3.21;81.33;97695.72;5090311;28;20310;-68
2022/12/23 01:32:32;;;;;;;30.70;18.08;;;;;;;3.20;81.71;97692.19;5090177;28;20036;-67
2022/12/23 01:34:57;;;;;;;32.67;17.73;;;;;;;3.19;81.53;97701.41;5090220;28;20486;-68
2022/12/23 01:37:22;;;;;;;30.15;16.90;;;;;;;3.15;82.18;97703.00;5090205;28;20058;-67
2022/12/23 01:39:48;;;;;;;31.60;16.92;;;;;;;3.14;81.37;97704.09;5090152;28;20535;-68
2022/12/23 01:45:09;;;;;;;33.90;17.90;;;;;;;3.07;81.40;97704.34;5090911;28;20043;-67
2022/12/23 01:47:49;;;;;;;27.85;17.20;;;;;;;3.07;81.92;97712.47;5090337;28;20056;-68
2022/12/23 01:50:30;;;;;;;33.40;17.02;;;;;;;3.04;82.02;97709.50;5090237;28;20031;-67
2022/12/23 01:53:02;;;;;;;43.42;22.83;;;;;;;3.03;81.93;97714.09;5090795;28;20028;-67
2022/12/23 01:55:31;;;;;;;48.75;22.50;;;;;;;3.01;82.36;97713.53;5090686;28;20028;-68
2022/12/23 01:58:10;;;;;;;33.13;17.83;;;;;;;3.00;81.74;97708.41;5090341;28;20476;-68
2022/12/23 02:09:32;;;;;;;36.67;20.00;;;;;;;2.93;82.33;97717.56;5090637;28;20093;-67
2022/12/23 02:12:04;;;;;;;32.97;18.05;;;;;;;2.93;81.90;97725.69;5081404;28;20052;-68
2022/12/23 02:18:00;;;;;;;34.95;19.42;;;;;;;2.94;82.42;97718.38;5094192;28;20049;-68
2022/12/23 02:21:01;;;;;;;35.63;19.73;;;;;;;2.92;82.41;97720.53;5094214;28;20472;-68
2022/12/23 02:23:51;;;;;;;42.05;21.67;;;;;;;2.92;82.39;97725.94;5075000;28;20028;-68
2022/12/23 02:26:38;;;;;;;38.25;19.92;;;;;;;2.93;82.22;97727.56;5093785;28;20036;-68
2022/12/23 02:29:19;;;;;;;46.55;23.70;;;;;;;2.92;82.75;97713.25;5073552;28;20056;-67
2022/12/23 02:32:09;;;;;;;41.45;21.92;;;;;;;2.91;82.05;97719.72;5093322;28;20059;-67
2022/12/23 02:34:55;;;;;;;36.25;20.00;;;;;;;2.93;82.22;97720.28;5093006;28;20032;-67
2022/12/23 02:37:35;;;;;;;35.97;20.83;;;;;;;2.94;82.12;97719.19;5090911;28;20035;-68
2022/12/23 02:40:04;;;;;;;33.40;19.67;;;;;;;2.97;82.31;97715.97;5089905;28;20069;-68
2022/12/23 02:42:44;;;;;;;33.08;18.50;;;;;;;2.98;82.23;97708.66;5090805;28;20035;-67
2022/12/23 02:45:15;;;;;;;33.92;19.52;;;;;;;3.00;82.41;97709.19;5091552;28;20613;-67
2022/12/23 02:47:48;;;;;;;35.67;19.25;;;;;;;3.03;82.37;97710.56;5088899;28;20036;-67
2022/12/23 02:50:19;;;;;;;31.90;17.52;;;;;;;3.06;82.20;97704.59;5093092;28;20024;-67
2022/12/23 02:52:48;;;;;;;33.08;19.40;;;;;;;3.09;83.15;97707.59;5093369;28;20039;-68
2022/12/23 02:55:21;;;;;;;39.22;19.35;;;;;;;3.12;83.26;97706.25;5092080;28;20488;-67
2022/12/23 02:57:50;;;;;;;46.33;23.10;;;;;;;3.16;83.35;97710.06;5093416;28;20424;-67
2022/12/23 03:00:17;;;;;;;36.30;19.63;;;;;;;3.17;83.20;97711.69;5093714;28;20031;-68
2022/12/23 03:02:44;;;;;;;31.35;16.27;;;;;;;3.21;82.84;97717.41;5093603;28;20027;-67
2022/12/23 03:05:31;;;;;;;30.50;18.10;;;;;;;3.23;82.87;97713.34;5093147;28;20020;-67
2022/12/23 03:08:01;;;;;;;30.73;18.13;;;;;;;3.25;82.93;97703.03;5092816;28;20028;-68
2022/12/23 03:10:40;;;;;;;32.50;18.70;;;;;;;3.28;83.24;97697.09;5092637;28;20035;-68
2022/12/23 03:13:15;;;;;;;29.98;15.52;;;;;;;3.32;83.37;97700.06;5089257;28;20472;-67
2022/12/23 03:16:00;;;;;;;28.65;15.82;;;;;;;3.35;82.86;97699.53;5091221;28;20028;-68
2022/12/23 03:18:39;;;;;;;25.75;15.90;;;;;;;3.38;83.58;97706.34;5091591;28;20080;-67
2022/12/23 03:21:23;;;;;;;30.58;17.25;;;;;;;3.38;82.77;97698.22;5089815;28;20068;-68
2022/12/23 03:23:55;;;;;;;27.40;15.95;;;;;;;3.39;83.54;97706.06;5090563;28;20077;-68
2022/12/23 03:26:39;;;;;;;27.90;17.38;;;;;;;3.39;83.00;97691.69;5091050;28;20063;-67
2022/12/23 03:29:30;;;;;;;30.85;16.30;;;;;;;3.42;83.36;97704.72;5091698;28;20552;-68
2022/12/23 03:31:59;;;;;;;28.63;16.85;;;;;;;3.45;83.66;97711.50;5054785;28;20036;-67
2022/12/23 03:34:29;;;;;;;31.67;18.35;;;;;;;3.46;83.16;97700.41;5090673;28;20032;-68
2022/12/23 03:36:57;;;;;;;28.08;15.55;;;;;;;3.47;82.86;97703.91;5092996;28;20036;-67
2022/12/23 03:39:29;;;;;;;29.27;16.27;;;;;;;3.48;83.21;97694.69;5092200;28;20052;-68
2022/12/23 03:42:11;;;;;;;28.98;17.42;;;;;;;3.48;82.75;97684.66;5072114;28;20059;-68
2022/12/23 03:44:42;;;;;;;27.27;14.63;;;;;;;3.49;83.31;97694.41;5090414;28;20039;-68
2022/12/23 03:47:12;;;;;;;23.55;14.18;;;;;;;3.48;83.26;97690.06;5087729;28;20032;-68
2022/12/23 03:49:51;;;;;;;26.15;15.35;;;;;;;3.49;82.86;97685.47;5085710;28;20391;-68
2022/12/23 03:52:22;;;;;;;24.30;14.23;;;;;;;3.48;82.80;97683.84;5091426;28;20058;-68
2022/12/23 03:54:58;;;;;;;24.45;13.63;;;;;;;3.47;83.34;97691.16;5092944;28;20030;-67
2022/12/23 03:57:33;;;;;;;24.20;14.30;;;;;;;3.45;83.04;97685.22;5074139;28;20384;-68
2022/12/23 03:59:59;;;;;;;35.03;17.67;;;;;;;3.47;82.82;97687.63;5092584;28;20028;-67
2022/12/23 04:03:09;;;;;;;41.90;17.90;;;;;;;3.46;82.92;97683.31;5092674;28;20453;-68
2022/12/23 04:05:38;;;;;;;24.88;13.68;;;;;;;3.46;83.13;97688.72;5092796;28;20039;-68
2022/12/23 04:08:15;;;;;;;26.40;13.55;;;;;;;3.45;82.83;97679.78;5092568;28;20024;-68
2022/12/23 04:10:41;;;;;;;24.38;12.73;;;;;;;3.46;83.16;97676.00;5092334;28;20060;-68
2022/12/23 04:13:06;;;;;;;22.23;12.40;;;;;;;3.47;82.96;97669.47;5092238;28;20059;-68
2022/12/23 04:15:32;;;;;;;20.60;12.95;;;;;;;3.49;83.33;97670.00;5092118;28;20031;-67
2022/12/23 04:17:58;;;;;;;23.67;12.95;;;;;;;3.51;83.63;97662.41;5092461;28;20448;-68
2022/12/23 04:20:23;;;;;;;21.92;12.52;;;;;;;3.55;83.62;97662.72;5092038;28;20036;-67
2022/12/23 04:22:49;;;;;;;18.23;11.63;;;;;;;3.57;84.03;97665.97;5092423;28;20093;-67
2022/12/23 04:25:16;;;;;;;20.08;11.95;;;;;;;3.57;83.13;97652.41;5092432;28;20028;-68
2022/12/23 04:27:42;;;;;;;18.85;10.82;;;;;;;3.60;83.47;97654.59;5091947;28;20035;-68
2022/12/23 04:30:10;;;;;;;22.10;10.77;;;;;;;3.63;83.23;97650.50;5091826;28;20318;-68
2022/12/23 04:32:36;;;;;;;21.02;12.15;;;;;;;3.66;83.70;97655.38;5074336;28;20765;-68
2022/12/23 04:35:02;;;;;;;19.02;11.20;;;;;;;3.71;84.22;97661.63;5089182;28;20039;-68
2022/12/23 04:37:27;;;;;;;20.33;11.88;;;;;;;3.75;83.66;97659.19;5086850;28;20077;-68
2022/12/23 04:39:53;;;;;;;19.90;11.75;;;;;;;3.80;83.96;97664.63;5088210;28;20032;-67
2022/12/23 04:42:18;;;;;;;20.48;11.77;;;;;;;3.83;83.37;97658.66;5088426;28;20032;-68
2022/12/23 04:44:43;;;;;;;19.02;11.60;;;;;;;3.87;83.85;97669.78;5090490;28;20127;-66
2022/12/23 04:47:09;;;;;;;21.13;12.07;;;;;;;3.86;83.15;97668.13;5087980;28;20038;-68
2022/12/23 04:49:34;;;;;;;19.23;12.32;;;;;;;3.87;83.76;97673.28;5090086;28;20396;-67
2022/12/23 04:51:59;;;;;;;21.20;11.95;;;;;;;3.88;83.50;97669.47;5089504;28;20059;-68
2022/12/23 04:54:25;;;;;;;20.08;12.40;;;;;;;3.91;83.12;97659.16;5091516;28;20032;-67
2022/12/23 04:56:50;;;;;;;21.80;13.25;;;;;;;3.92;83.50;97658.09;5091705;28;20032;-68
2022/12/23 04:59:16;;;;;;;24.83;13.80;;;;;;;3.94;83.73;97658.63;5090006;28;20484;-68
2022/12/23 05:01:41;;;;;;;22.58;14.10;;;;;;;3.97;83.88;97653.50;5086557;28;20032;-68
2022/12/23 05:04:08;;;;;;;40.45;19.27;;;;;;;3.98;83.47;97646.16;5089570;28;20016;-68
2022/12/23 05:06:34;;;;;;;56.90;26.33;;;;;;;3.99;83.37;97634.22;5089761;28;20035;-68
2022/12/23 05:08:59;;;;;;;30.48;16.83;;;;;;;3.99;83.48;97643.19;5088013;28;20070;-68
2022/12/23 05:11:25;;;;;;;24.67;15.48;;;;;;;4.02;83.37;97639.09;5086491;28;20047;-68
2022/12/23 05:13:50;;;;;;;27.95;14.93;;;;;;;4.04;83.19;97641.56;5086139;28;20020;-68
2022/12/23 05:16:15;;;;;;;22.02;14.23;;;;;;;4.04;83.74;97642.34;5091225;28;20032;-68
2022/12/23 05:18:41;;;;;;;26.48;16.20;;;;;;;4.03;83.29;97643.44;5089897;28;20027;-68
2022/12/23 05:21:06;;;;;;;25.60;15.52;;;;;;;4.02;83.10;97645.34;5089704;28;20044;-68
2022/12/23 05:23:32;;;;;;;27.33;15.20;;;;;;;4.01;83.17;97649.16;5087905;28;20039;-68
2022/12/23 05:25:57;;;;;;;24.70;14.43;;;;;;;4.01;83.93;97637.47;5090985;28;20115;-67
2022/12/23 05:28:22;;;;;;;25.73;14.68;;;;;;;4.00;83.16;97639.38;5090066;28;20032;-68
2022/12/23 05:30:48;;;;;;;23.83;13.85;;;;;;;4.00;83.39;97627.69;5085094;28;20031;-68
2022/12/23 05:33:14;;;;;;;22.45;14.88;;;;;;;4.00;83.61;97635.84;5088935;28;20503;-68
2022/12/23 05:35:40;;;;;;;23.48;13.52;;;;;;;3.98;83.57;97630.69;5087212;28;20020;-68
2022/12/23 05:38:05;;;;;;;21.63;12.88;;;;;;;4.01;82.86;97632.03;5089236;28;20062;-68
2022/12/23 05:40:31;;;;;;;24.52;13.70;;;;;;;4.01;83.24;97638.28;5089247;28;20028;-68
2022/12/23 05:42:56;;;;;;;27.10;14.57;;;;;;;4.02;83.11;97636.38;5086685;28;20020;-68
2022/12/23 05:45:22;;;;;;;26.88;15.57;;;;;;;3.99;82.85;97635.03;5088974;28;20024;-68
2022/12/23 05:47:47;;;;;;;25.33;15.63;;;;;;;4.01;83.06;97634.75;5089408;28;20030;-68
2022/12/23 05:50:12;;;;;;;23.70;15.32;;;;;;;4.03;82.92;97624.44;5083671;28;20031;-68
2022/12/23 05:52:38;;;;;;;24.38;15.23;;;;;;;4.03;82.75;97624.44;5088781;28;20022;-68
2022/12/23 05:55:04;;;;;;;28.33;18.35;;;;;;;4.04;82.73;97622.56;5091144;28;20028;-68
2022/12/23 05:57:31;;;;;;;25.27;16.77;;;;;;;4.06;82.85;97615.75;5087676;28;20064;-68
2022/12/23 05:59:57;;;;;;;26.38;18.08;;;;;;;4.06;82.79;97614.97;5083988;28;20036;-68
2022/12/23 06:02:22;;;;;;;23.27;14.75;;;;;;;4.07;83.61;97622.81;5087521;28;20035;-68
2022/12/23 06:04:48;;;;;;;21.98;14.70;;;;;;;4.11;83.37;97614.91;5089962;28;20752;-68
2022/12/23 06:07:14;;;;;;;19.65;13.18;;;;;;;4.13;83.32;97613.56;5090484;28;20028;-68
2022/12/23 06:09:39;;;;;;;23.17;13.88;;;;;;;4.17;82.95;97616.53;5088892;28;20024;-68
2022/12/23 06:12:05;;;;;;;22.00;13.18;;;;;;;4.21;83.28;97619.53;5087709;28;20055;-68
2022/12/23 06:14:30;;;;;;;18.23;12.27;;;;;;;4.25;82.86;97620.63;5085648;28;20108;-68
2022/12/23 06:16:55;;;;;;;21.67;13.80;;;;;;;4.25;82.87;97623.31;5082317;28;20485;-69
2022/12/23 06:19:21;;;;;;;19.33;11.68;;;;;;;4.25;82.87;97613.28;5087094;28;20085;-68
2022/12/23 06:21:46;;;;;;;23.77;15.50;;;;;;;4.28;82.82;97618.16;5089867;28;20441;-68
2022/12/23 06:24:11;;;;;;;21.25;14.18;;;;;;;4.29;82.92;97614.34;5086875;28;20021;-68
2022/12/23 06:26:37;;;;;;;20.58;14.90;;;;;;;4.30;82.62;97621.41;5083494;28;20066;-68
2022/12/23 06:29:03;;;;;;;24.45;16.20;;;;;;;4.32;83.38;97624.66;5087352;28;20119;-68
2022/12/23 06:31:28;;;;;;;27.27;16.95;;;;;;;4.34;82.76;97626.28;5087935;28;20032;-68
2022/12/23 06:33:53;;;;;;;23.33;14.52;;;;;;;4.35;82.55;97631.41;5089327;28;20067;-68
2022/12/23 06:36:19;;;;;;;22.98;14.40;;;;;;;4.38;82.83;97635.50;5087678;28;20089;-68
2022/12/23 06:38:44;;;;;;;22.92;13.38;;;;;;;4.39;82.43;97628.97;5070979;28;20427;-68
2022/12/23 06:41:10;;;;;;;32.35;16.50;;;;;;;4.43;83.23;97630.06;5088466;28;20032;-68
2022/12/23 06:43:35;;;;;;;33.90;17.27;;;;;;;4.44;82.53;97637.91;5088346;28;20100;-68
2022/12/23 06:46:01;;;;;;;33.90;18.52;;;;;;;4.49;82.95;97650.66;5088619;28;20024;-69
2022/12/23 06:48:26;;;;;;;27.00;16.15;;;;;;;4.49;82.60;97649.84;5088132;28;20016;-68
2022/12/23 06:50:52;;;;;;;27.98;16.98;;;;;;;4.47;82.45;97650.16;5089054;28;20030;-68
2022/12/23 06:53:17;;;;;;;24.63;14.38;;;;;;;4.49;83.03;97647.13;5086589;28;20067;-69
2022/12/23 06:55:42;;;;;;;19.83;12.52;;;;;;;4.49;82.95;97647.13;5084308;28;20035;-69
2022/12/23 06:58:08;;;;;;;21.75;12.57;;;;;;;4.49;82.63;97641.72;5089766;28;20107;-69
2022/12/23 07:00:33;;;;;;;26.55;16.95;;;;;;;4.50;83.07;97646.06;5089981;28;20695;-69
2022/12/23 07:02:58;;;;;;;25.55;16.25;;;;;;;4.52;82.90;97649.31;5092489;28;20078;-69
2022/12/23 07:05:24;;;;;;;23.40;15.85;;;;;;;4.53;83.10;97646.28;5093057;28;20052;-70
2022/12/23 07:07:49;;;;;;;24.00;16.17;;;;;;;4.54;83.32;97649.84;5072462;28;20025;-69
2022/12/23 07:10:15;;;;;;;35.15;22.83;;;;;;;4.54;83.02;97647.13;5090987;28;20563;-69
2022/12/23 07:12:40;;;;;;;41.17;29.50;;;;;;;4.56;82.74;97656.59;5091375;28;20452;-69
2022/12/23 07:15:06;;;;;;;35.55;25.85;;;;;;;4.60;82.62;97659.59;5072656;28;20031;-70
2022/12/23 07:17:31;;;;;;;37.53;27.52;;;;;;;4.60;83.18;97662.31;5091139;28;20531;-68
2022/12/23 07:19:57;;;;;;;33.95;23.55;;;;;;;4.64;82.80;97657.97;5090298;28;20111;-67
2022/12/23 07:22:23;;;;;;;32.95;24.90;;;;;;;4.65;82.97;97659.59;5089781;28;20048;-68
2022/12/23 07:24:48;;;;;;;31.80;22.05;;;;;;;4.67;82.88;97660.13;5090116;28;20031;-68
2022/12/23 07:27:14;;;;;;;30.77;21.23;;;;;;;4.69;82.68;97665.25;5090665;28;20039;-68
2022/12/23 07:29:39;;;;;;;28.98;17.55;;;;;;;4.70;82.95;97669.59;5090068;28;20032;-68
2022/12/23 07:32:04;;;;;;;27.70;16.80;;;;;;;4.72;82.85;97670.16;5088397;28;20494;-69
2022/12/23 07:34:30;;;;;;;28.20;17.23;;;;;;;4.72;82.90;97670.16;5091469;28;20119;-71
2022/12/23 07:36:55;;;;;;;25.85;15.70;;;;;;;4.74;82.96;97667.97;5073715;28;20123;-70
2022/12/23 07:39:21;;;;;;;28.48;16.00;;;;;;;4.77;82.84;97664.69;5088824;28;20089;-67
2022/12/23 07:41:46;;;;;;;26.02;15.70;;;;;;;4.79;83.02;97667.13;5085439;28;20047;-68
2022/12/23 07:44:12;;;;;;;29.50;17.13;;;;;;;4.80;82.69;97674.19;5084976;28;20496;-69
2022/12/23 07:46:37;;;;;;;27.33;16.25;;;;;;;4.81;82.93;97659.50;5091827;28;20381;-68
2022/12/23 07:49:03;;;;;;;29.17;18.05;;;;;;;4.84;82.84;97654.34;5091325;28;20032;-69
2022/12/23 07:51:29;;;;;;;30.13;18.33;;;;;;;4.88;83.21;97654.59;5090215;28;20418;-69
2022/12/23 07:53:54;;;;;;;31.88;17.30;;;;;;;4.88;83.30;97652.72;5090168;28;20027;-70
2022/12/23 07:56:19;;;;;;;34.50;18.80;;;;;;;4.91;82.79;97654.84;5090513;28;20081;-69
2022/12/23 07:58:49;;;;;;;38.53;22.33;;;;;;;4.92;83.04;97644.78;5090845;28;20028;-68
2022/12/23 08:01:15;;;;;;;32.40;20.33;;;;;;;4.95;82.98;97651.56;5082228;28;20503;-70
2022/12/23 08:03:40;;;;;;;39.05;21.40;;;;;;;4.94;83.36;97642.63;5090821;28;20036;-69
2022/12/23 08:06:11;;;;;;;34.53;19.85;;;;;;;4.94;82.73;97639.91;5089370;28;20067;-69
2022/12/23 08:08:37;;;;;;;30.98;18.85;;;;;;;4.97;82.82;97638.50;5089790;28;20051;-68
2022/12/23 08:11:05;;;;;;;27.55;16.50;;;;;;;4.99;83.38;97629.00;5085983;28;20032;-68
2022/12/23 08:13:32;;;;;;;26.85;15.85;;;;;;;5.02;83.42;97635.78;5086964;28;20028;-68
2022/12/23 08:15:59;;;;;;;26.63;14.02;;;;;;;5.03;83.42;97638.22;5071261;28;20369;-68
2022/12/23 08:18:26;;;;;;;24.40;14.50;;;;;;;5.03;83.49;97623.81;5087819;28;20111;-68
2022/12/23 08:21:21;;;;;;;21.17;11.93;;;;;;;5.04;83.00;97626.25;5087089;28;20107;-65
2022/12/23 08:23:47;;;;;;;24.23;13.00;;;;;;;5.07;83.70;97624.88;5086828;28;20039;-66
2022/12/23 08:26:20;;;;;;;19.35;10.35;;;;;;;5.05;83.25;97614.28;5089619;28;20020;-68
2022/12/23 08:28:46;;;;;;;16.70;10.25;;;;;;;5.07;83.49;97620.28;5087901;28;20040;-67
2022/12/23 08:31:13;;;;;;;20.85;13.10;;;;;;;5.08;83.61;97621.06;5084496;28;20051;-68
2022/12/23 08:33:40;;;;;;;25.13;15.95;;;;;;;5.08;83.15;97626.50;5068124;28;20024;-67
2022/12/23 08:36:08;;;;;;;22.35;13.52;;;;;;;5.12;83.49;97629.47;5086339;28;20045;-68
2022/12/23 08:38:34;;;;;;;17.58;10.25;;;;;;;5.15;83.38;97623.47;5084168;28;20068;-67
2022/12/23 08:41:00;;;;;;;20.58;12.18;;;;;;;5.18;83.52;97625.63;5091013;28;20020;-68
2022/12/23 08:43:25;;;;;;;22.55;12.52;;;;;;;5.20;83.77;97626.97;5090593;28;20042;-68
2022/12/23 08:45:50;;;;;;;19.85;11.55;;;;;;;5.25;83.56;97631.56;5091745;28;20028;-67
2022/12/23 08:48:16;;;;;;;21.60;13.98;;;;;;;5.27;83.27;97629.38;5091091;28;20024;-67
2022/12/23 08:50:43;;;;;;;29.73;21.38;;;;;;;5.28;83.47;97625.56;5089620;28;20107;-69
2022/12/23 08:53:10;;;;;;;38.75;28.63;;;;;;;5.31;83.32;97624.16;5071315;28;20032;-67
2022/12/23 08:55:40;;;;;;;27.58;19.05;;;;;;;5.30;83.18;97619.84;5088004;28;20028;-67
2022/12/23 08:58:07;;;;;;;24.08;13.20;;;;;;;5.33;83.20;97605.66;5069240;28;20075;-67
2022/12/23 09:00:33;;;;;;;18.90;11.65;;;;;;;5.31;83.61;97605.97;5087995;28;20040;-67
2022/12/23 09:02:58;;;;;;;19.08;11.43;;;;;;;5.32;83.65;97609.47;5088865;28;20065;-68
2022/12/23 09:05:23;;;;;;;18.17;11.70;;;;;;;5.31;83.07;97603.25;5089092;28;20062;-68
2022/12/23 09:07:49;;;;;;;19.08;12.27;;;;;;;5.33;83.56;97605.66;5089678;28;20411;-68
2022/12/23 09:10:15;;;;;;;20.35;12.63;;;;;;;5.35;83.38;97601.59;5090085;28;20031;-68
2022/12/23 09:12:40;;;;;;;18.25;11.30;;;;;;;5.38;83.47;97596.69;5091035;28;20028;-68
2022/12/23 09:15:06;;;;;;;19.08;10.98;;;;;;;5.39;83.12;97590.16;5090523;28;20035;-68
2022/12/23 09:17:32;;;;;;;21.95;12.45;;;;;;;5.41;83.25;97588.75;5090979;28;20051;-68
2022/12/23 09:19:57;;;;;;;14.82;10.27;;;;;;;5.45;83.43;97583.59;5090540;28;20040;-69
2022/12/23 09:22:23;;;;;;;18.75;11.93;;;;;;;5.47;83.50;97573.22;5090642;28;20118;-69
2022/12/23 09:24:48;;;;;;;20.15;10.85;;;;;;;5.46;83.69;97568.88;5072434;28;20469;-69
2022/12/23 09:27:13;;;;;;;17.45;11.13;;;;;;;5.48;83.22;97570.22;5090930;28;20024;-69
2022/12/23 09:29:39;;;;;;;16.65;11.65;;;;;;;5.50;83.10;97569.94;5090056;28;20032;-69
2022/12/23 09:32:05;;;;;;;16.10;10.23;;;;;;;5.54;83.33;97579.13;5090945;28;20472;-69
2022/12/23 09:34:30;;;;;;;15.10;10.25;;;;;;;5.58;83.38;97563.06;5089986;28;20051;-68
2022/12/23 09:36:56;;;;;;;20.15;12.85;;;;;;;5.63;83.34;97563.03;5090480;28;20106;-69
2022/12/23 09:39:21;;;;;;;22.88;15.27;;;;;;;5.64;83.38;97561.94;5090568;28;20063;-69
2022/12/23 09:42:12;;;;;;;27.98;20.17;;;;;;;5.65;83.23;97555.41;5089495;28;20032;-69
2022/12/23 09:44:56;;;;;;;32.50;21.98;;;;;;;5.68;83.15;97551.28;5071754;28;20671;-69
2022/12/23 09:47:25;;;;;;;32.38;19.85;;;;;;;5.72;83.17;97563.22;5090295;28;20028;-69
2022/12/23 09:49:57;;;;;;;39.07;23.53;;;;;;;5.74;83.48;97567.25;5090035;28;20032;-69
2022/12/23 09:53:02;;;;;;;29.13;19.35;;;;;;;5.76;82.88;97550.66;5090544;28;20032;-69
2022/12/23 09:55:53;;;;;;;28.83;17.80;;;;;;;5.79;83.15;97545.44;5085853;28;20028;-69
2022/12/23 09:58:54;;;;;;;25.65;17.60;;;;;;;5.80;82.86;97544.34;5090239;28;20024;-69
2022/12/23 10:01:45;;;;;;;23.73;14.27;;;;;;;5.79;82.78;97547.38;5007606;28;20041;-69
2022/12/23 10:04:32;;;;;;;21.52;13.32;;;;;;;5.80;83.07;97549.00;5087556;28;20464;-69
2022/12/23 10:07:03;;;;;;;20.35;13.93;;;;;;;5.79;83.15;97552.81;5089777;28;20031;-69
2022/12/23 10:09:35;;;;;;;17.60;11.50;;;;;;;5.78;82.77;97554.69;5089552;28;20134;-69
2022/12/23 10:12:10;;;;;;;16.75;10.00;;;;;;;5.80;82.95;97555.22;5089815;28;20020;-69
2022/12/23 10:14:36;;;;;;;15.70;10.23;;;;;;;5.82;83.37;97546.78;5090696;28;20028;-69
2022/12/23 10:17:11;;;;;;;17.25;9.60;;;;;;;5.85;82.77;97556.28;5089732;28;20024;-68
2022/12/23 10:19:40;;;;;;;15.27;8.57;;;;;;;5.87;83.32;97545.91;5089464;28;20073;-69
2022/12/23 10:22:34;;;;;;;15.95;8.40;;;;;;;5.89;83.02;97546.44;5090123;28;20087;-66
2022/12/23 10:25:02;;;;;;;13.73;8.80;;;;;;;5.90;82.88;97548.91;5088784;28;20038;-66
2022/12/23 10:27:37;;;;;;;15.40;9.55;;;;;;;5.90;83.35;97538.00;5090050;28;20507;-67
2022/12/23 10:30:09;;;;;;;14.48;9.15;;;;;;;5.91;83.21;97539.59;5090301;28;20627;-66
2022/12/23 10:32:54;;;;;;;12.20;8.32;;;;;;;5.94;83.33;97539.03;5090551;28;20443;-66
2022/12/23 10:35:41;;;;;;;11.75;8.35;;;;;;;5.97;82.94;97543.91;5086357;28;20111;-65
2022/12/23 10:38:06;;;;;;;12.80;7.82;;;;;;;5.98;83.24;97536.56;5093290;28;20438;-65
2022/12/23 10:40:51;;;;;;;13.38;8.20;;;;;;;5.97;83.35;97538.44;5092567;28;20048;-66
2022/12/23 10:43:44;;;;;;;13.13;8.30;;;;;;;5.97;83.02;97543.91;5094316;28;20028;-65
2022/12/23 10:46:31;;;;;;;15.10;9.85;;;;;;;5.97;82.90;97543.09;5092284;28;20645;-66
2022/12/23 10:49:30;;;;;;;15.55;10.20;;;;;;;5.93;83.03;97542.84;5075895;28;20527;-65
2022/12/23 10:51:59;;;;;;;22.27;14.27;;;;;;;5.94;83.32;97547.19;5085389;28;20035;-67
2022/12/23 10:54:32;;;;;;;18.38;11.73;;;;;;;5.94;83.19;97549.91;5091707;28;20067;-67
2022/12/23 10:56:58;;;;;;;19.05;12.13;;;;;;;5.91;82.51;97550.50;5082901;28;20028;-69
2022/12/23 10:59:29;;;;;;;22.75;13.48;;;;;;;5.91;83.20;97550.50;5091706;28;20027;-70
2022/12/23 11:02:30;;;;;;;13.48;9.75;;;;;;;5.88;82.92;97550.25;5074096;28;20043;-72
2022/12/23 11:04:56;;;;;;;15.10;9.70;;;;;;;5.87;83.06;97548.63;5090492;28;20039;-73
2022/12/23 11:07:24;;;;;;;14.23;9.55;;;;;;;5.89;83.57;97549.16;5073434;28;20024;-71
2022/12/23 11:09:56;;;;;;;16.75;10.88;;;;;;;5.88;82.97;97550.25;5091540;28;20224;-71
2022/12/23 11:12:23;;;;;;;15.60;10.63;;;;;;;5.87;83.17;97552.19;5088190;28;20035;-72
2022/12/23 11:14:56;;;;;;;15.70;11.32;;;;;;;5.89;83.42;97547.28;5091825;28;20063;-72
2022/12/23 11:17:23;;;;;;;15.73;10.45;;;;;;;5.92;82.91;97537.72;5092443;28;20039;-72
2022/12/23 11:20:17;;;;;;;14.63;11.30;;;;;;;5.91;83.27;97534.16;5091971;28;20111;-72
2022/12/23 11:22:48;;;;;;;13.93;8.73;;;;;;;5.94;83.11;97535.50;5091645;28;20512;-73
2022/12/23 11:25:23;;;;;;;14.73;8.85;;;;;;;5.93;83.06;97539.31;5092006;28;20668;-70
2022/12/23 11:27:54;;;;;;;14.27;10.90;;;;;;;5.94;83.30;97549.13;5092078;28;20031;-70
2022/12/23 11:30:20;;;;;;;14.93;9.23;;;;;;;5.94;82.91;97551.84;5091788;28;20372;-71
2022/12/23 11:32:45;;;;;;;16.23;10.70;;;;;;;5.96;83.22;97541.47;5092639;28;20035;-69
2022/12/23 11:35:37;;;;;;;15.68;11.55;;;;;;;5.98;82.88;97539.28;5090140;28;20145;-69
2022/12/23 11:38:03;;;;;;;17.77;13.30;;;;;;;6.01;83.04;97540.63;5084173;28;20090;-69
2022/12/23 11:40:33;;;;;;;15.02;11.80;;;;;;;6.03;83.34;97535.72;5091019;28;20063;-71
2022/12/23 11:43:00;;;;;;;;;;;;;;;6.04;83.10;97527.28;5090778;28;20035;-70
2022/12/23 11:45:29;;;;;;;19.10;12.38;;;;;;;6.05;82.94;97528.91;5089552;28;19959;-70
2022/12/23 11:47:55;;;;;;;16.92;12.32;;;;;;;6.05;83.46;97530.78;5090083;28;20036;-70
2022/12/23 11:50:28;;;;;;;16.75;10.88;;;;;;;6.08;83.14;97546.53;5091552;28;20103;-71
2022/12/23 11:53:08;;;;;;;16.50;10.10;;;;;;;6.10;82.86;97542.44;5091228;28;20103;-71
2022/12/23 11:55:34;;;;;;;19.70;11.93;;;;;;;6.13;82.73;97545.66;5091301;28;20063;-70
2022/12/23 11:58:01;;;;;;;22.13;13.38;;;;;;;6.14;82.93;97542.66;5091265;28;20056;-70
2022/12/23 12:00:39;;;;;;;21.15;13.35;;;;;;;6.22;83.24;97542.03;5091259;28;20028;-70
2022/12/23 12:03:07;;;;;;;23.08;13.45;;;;;;;6.25;83.02;97533.28;5070451;28;20089;-71
2022/12/23 12:05:32;;;;;;;27.45;14.65;;;;;;;6.28;83.02;97531.09;5088836;28;20021;-71
2022/12/23 12:08:01;;;;;;;25.65;14.48;;;;;;;6.28;82.88;97533.81;5092174;28;20023;-71